createdAt,value
2022-12-15T00:00:45.737Z,100945.94
2022-12-15T00:03:32.112Z,100943.41
2022-12-15T00:06:19.425Z,100957.19
2022-12-15T00:09:07.533Z,100965.00
2022-12-15T00:11:57.307Z,100958.97
2022-12-15T00:14:43.081Z,100948.59
2022-12-15T00:17:30.604Z,100955.47
2022-12-15T00:20:16.715Z,100967.56
2022-12-15T00:23:02.926Z,100963.25
2022-12-15T00:25:49.068Z,100966.75
2022-12-15T00:28:35.231Z,100966.78
2022-12-15T00:31:21.760Z,100963.41
2022-12-15T00:34:09.667Z,100971.22
2022-12-15T00:36:55.136Z,100973.00
2022-12-15T00:39:23.950Z,100978.22
2022-12-15T00:41:52.371Z,100984.28
2022-12-15T00:44:21.420Z,100982.59
2022-12-15T00:46:57.576Z,100980.88
2022-12-15T00:49:47.262Z,100979.22
2022-12-15T00:52:34.889Z,100978.38
2022-12-15T00:55:21.028Z,100980.13
2022-12-15T00:58:07.269Z,100970.63
2022-12-15T01:00:53.581Z,100964.59
2022-12-15T01:03:42.418Z,100972.28
2022-12-15T01:06:31.889Z,100969.69
2022-12-15T01:09:18.072Z,100976.56
2022-12-15T01:12:04.406Z,100974.03
2022-12-15T01:14:51.778Z,100968.88
2022-12-15T01:17:37.944Z,100977.56
2022-12-15T01:20:33.108Z,100976.78
2022-12-15T01:23:04.422Z,100969.13
2022-12-15T01:25:33.312Z,100977.88
2022-12-15T01:28:02.214Z,100972.75
2022-12-15T01:30:30.911Z,100979.69
2022-12-15T01:32:59.805Z,100978.00
2022-12-15T01:35:29.317Z,100979.81
2022-12-15T01:37:57.754Z,100974.72
2022-12-15T01:40:44.708Z,100966.19
2022-12-15T01:43:15.328Z,100963.63
2022-12-15T01:45:58.010Z,100964.47
2022-12-15T01:48:35.831Z,100969.63
2022-12-15T01:51:12.494Z,100961.03
2022-12-15T01:53:45.676Z,100969.63
2022-12-15T01:56:21.389Z,100973.94
2022-12-15T01:58:52.764Z,100972.22
2022-12-15T02:01:21.776Z,100974.84
2022-12-15T02:03:50.611Z,100974.88
2022-12-15T02:06:23.157Z,100977.47
2022-12-15T02:08:53.874Z,100987.78
2022-12-15T02:11:51.547Z,100987.81
2022-12-15T02:14:29.722Z,100982.66
2022-12-15T02:17:13.913Z,100979.22
2022-12-15T02:20:21.080Z,100978.44
2022-12-15T02:23:12.387Z,100981.09
2022-12-15T02:26:07.198Z,100993.22
2022-12-15T02:28:50.290Z,100995.88
2022-12-15T02:31:41.975Z,101003.69
2022-12-15T02:34:17.198Z,101001.16
2022-12-15T02:36:48.983Z,101008.97
2022-12-15T02:39:19.985Z,101005.56
2022-12-15T02:41:49.337Z,101006.47
2022-12-15T02:44:22.704Z,101003.03
2022-12-15T02:47:13.370Z,100998.78
2022-12-15T02:49:55.284Z,101004.84
2022-12-15T02:52:36.990Z,101008.28
2022-12-15T02:55:16.694Z,101008.28
2022-12-15T02:57:54.766Z,101006.59
2022-12-15T03:00:24.167Z,100999.72
2022-12-15T03:02:57.125Z,101010.91
2022-12-15T03:05:27.497Z,101009.25
2022-12-15T03:07:56.126Z,101001.50
2022-12-15T03:10:27.826Z,100998.06
2022-12-15T03:12:56.358Z,101008.41
2022-12-15T03:15:24.770Z,101007.53
2022-12-15T03:17:54.837Z,101000.66
2022-12-15T03:20:23.424Z,101001.50
2022-12-15T03:22:52.077Z,101001.56
2022-12-15T03:25:20.814Z,101001.53
2022-12-15T03:27:49.955Z,101001.56
2022-12-15T03:30:18.643Z,101010.16
2022-12-15T03:32:47.004Z,100995.59
2022-12-15T03:35:16.994Z,100993.00
2022-12-15T03:37:45.448Z,101005.94
2022-12-15T03:40:15.228Z,101006.81
2022-12-15T03:42:53.204Z,101010.25
2022-12-15T03:45:23.615Z,101006.88
2022-12-15T03:47:53.173Z,101001.69
2022-12-15T03:50:25.798Z,101013.72
2022-12-15T03:52:56.061Z,101012.03
2022-12-15T03:55:25.090Z,101006.88
2022-12-15T03:57:54.294Z,101003.31
2022-12-15T04:00:24.771Z,101000.72
2022-12-15T04:02:54.068Z,101005.84
2022-12-15T04:05:27.089Z,101008.44
2022-12-15T04:07:56.228Z,101012.69
2022-12-15T04:10:31.921Z,101010.91
2022-12-15T04:13:08.242Z,101010.03
2022-12-15T04:15:37.587Z,101011.78
2022-12-15T04:18:09.530Z,101008.31
2022-12-15T04:20:40.362Z,101008.34
2022-12-15T04:23:09.457Z,101010.06
2022-12-15T04:25:56.719Z,101007.53
2022-12-15T04:28:43.829Z,101017.84
2022-12-15T04:31:32.029Z,101004.88
2022-12-15T04:34:21.365Z,101012.59
2022-12-15T04:37:11.781Z,101005.72
2022-12-15T04:40:01.916Z,101003.94
2022-12-15T04:42:49.940Z,100997.06
2022-12-15T04:45:37.557Z,100991.88
2022-12-15T04:48:24.417Z,100997.94
2022-12-15T04:51:10.073Z,101008.31
2022-12-15T04:53:57.482Z,100998.84
2022-12-15T04:56:43.640Z,100997.16
2022-12-15T04:59:29.428Z,100992.88
2022-12-15T05:02:15.787Z,100993.75
2022-12-15T05:05:01.910Z,100989.41
2022-12-15T05:07:47.607Z,100988.56
2022-12-15T05:10:35.046Z,100992.03
2022-12-15T05:13:25.319Z,101001.47
2022-12-15T05:16:11.812Z,101007.53
2022-12-15T05:18:57.630Z,101008.41
2022-12-15T05:21:43.410Z,101002.38
2022-12-15T05:24:29.024Z,101013.63
2022-12-15T05:27:16.410Z,101013.69
2022-12-15T05:30:02.139Z,101007.69
2022-12-15T05:32:33.599Z,101004.28
2022-12-15T05:35:02.674Z,101001.72
2022-12-15T05:37:31.085Z,101003.50
2022-12-15T05:39:59.420Z,101004.38
2022-12-15T05:42:29.308Z,101007.78
2022-12-15T05:44:58.010Z,101005.97
2022-12-15T05:47:26.761Z,101006.81
2022-12-15T05:49:55.583Z,101007.69
2022-12-15T05:52:24.245Z,101011.97
2022-12-15T05:54:52.572Z,101010.22
2022-12-15T05:57:21.002Z,101011.97
2022-12-15T05:59:50.809Z,101011.09
2022-12-15T06:02:20.554Z,101011.94
2022-12-15T06:04:49.281Z,101011.06
2022-12-15T06:07:17.887Z,101016.22
2022-12-15T06:09:46.815Z,101016.22
2022-12-15T06:12:15.346Z,101028.25
2022-12-15T06:14:43.949Z,101030.88
2022-12-15T06:17:13.900Z,101021.44
2022-12-15T06:19:42.651Z,101018.00
2022-12-15T06:22:11.237Z,101021.44
2022-12-15T06:24:39.805Z,101015.44
2022-12-15T06:27:09.554Z,101016.28
2022-12-15T06:29:37.986Z,101021.44
2022-12-15T06:32:06.604Z,101026.63
2022-12-15T06:34:37.716Z,101027.47
2022-12-15T06:37:06.227Z,101023.16
2022-12-15T06:39:34.684Z,101021.50
2022-12-15T06:42:02.990Z,101028.38
2022-12-15T06:44:31.485Z,101022.38
2022-12-15T06:47:00.263Z,101034.41
2022-12-15T06:49:29.174Z,101043.81
2022-12-15T06:51:59.091Z,101036.91
2022-12-15T06:54:28.511Z,101030.91
2022-12-15T06:56:57.010Z,101032.66
2022-12-15T06:59:25.380Z,101031.78
2022-12-15T07:01:54.171Z,101025.78
2022-12-15T07:04:22.744Z,101034.44
2022-12-15T07:06:51.338Z,101043.91
2022-12-15T07:09:21.732Z,101037.13
2022-12-15T07:11:51.518Z,101048.31
2022-12-15T07:14:20.241Z,101042.34
2022-12-15T07:16:48.559Z,101044.97
2022-12-15T07:19:17.009Z,101043.28
2022-12-15T07:21:46.722Z,101033.81
2022-12-15T07:24:16.510Z,101045.00
2022-12-15T07:26:49.757Z,101038.13
2022-12-15T07:29:23.411Z,101038.09
2022-12-15T07:31:52.932Z,101044.03
2022-12-15T07:34:21.631Z,101048.34
2022-12-15T07:36:52.612Z,101051.75
2022-12-15T07:39:24.825Z,101053.41
2022-12-15T07:41:54.790Z,101053.41
2022-12-15T07:44:32.095Z,101054.31
2022-12-15T07:47:01.782Z,101050.94
2022-12-15T07:49:30.784Z,101064.69
2022-12-15T07:51:59.372Z,101064.69
2022-12-15T07:54:29.448Z,101067.31
2022-12-15T07:57:00.155Z,101067.34
2022-12-15T07:59:31.051Z,101081.91
2022-12-15T08:02:17.995Z,101087.03
2022-12-15T08:04:46.467Z,101093.06
2022-12-15T08:07:18.242Z,101087.94
2022-12-15T08:09:48.590Z,101088.78
2022-12-15T08:12:19.466Z,101086.22
2022-12-15T08:14:56.383Z,101086.22
2022-12-15T08:17:25.244Z,101086.22
2022-12-15T08:19:58.722Z,101093.97
2022-12-15T08:22:27.394Z,101098.31
2022-12-15T08:24:56.994Z,101095.63
2022-12-15T08:27:33.441Z,101096.56
2022-12-15T08:30:11.646Z,101101.72
2022-12-15T08:32:46.062Z,101110.34
2022-12-15T08:35:54.457Z,101111.19
2022-12-15T08:38:09.274Z,101120.69
2022-12-15T08:40:37.548Z,101116.34
2022-12-15T08:43:08.187Z,101119.72
2022-12-15T08:45:36.653Z,101118.88
2022-12-15T08:48:16.645Z,101123.16
2022-12-15T08:50:46.698Z,101114.50
2022-12-15T08:53:30.798Z,101119.69
2022-12-15T08:56:15.896Z,101116.16
2022-12-15T08:58:46.415Z,101116.97
2022-12-15T09:01:22.428Z,101116.94
2022-12-15T09:04:12.596Z,101115.13
2022-12-15T09:06:50.741Z,101127.94
2022-12-15T09:09:22.735Z,101128.78
2022-12-15T09:11:56.065Z,101129.59
2022-12-15T09:14:29.689Z,101139.84
2022-12-15T09:16:58.584Z,101144.13
2022-12-15T09:19:28.292Z,101153.56
2022-12-15T09:22:02.682Z,101159.56
2022-12-15T09:24:35.056Z,101161.28
2022-12-15T09:27:05.086Z,101171.63
2022-12-15T09:29:35.237Z,101175.06
2022-12-15T09:32:08.976Z,101171.59
2022-12-15T09:34:41.059Z,101173.28
2022-12-15T09:37:09.628Z,101171.50
2022-12-15T09:39:39.307Z,101172.22
2022-12-15T09:42:07.965Z,101173.88
2022-12-15T09:44:39.523Z,101173.75
2022-12-15T09:47:18.953Z,101177.00
2022-12-15T09:49:57.782Z,101187.25
2022-12-15T09:52:30.439Z,101188.91
2022-12-15T09:55:02.019Z,101179.28
2022-12-15T09:57:40.063Z,101184.31
2022-12-15T10:00:21.738Z,101179.03
2022-12-15T10:03:19.354Z,101176.34
2022-12-15T10:06:20.037Z,101186.59
2022-12-15T10:08:56.394Z,101184.81
2022-12-15T10:11:38.291Z,101183.16
2022-12-15T10:14:18.601Z,101189.19
2022-12-15T10:16:57.229Z,101188.22
2022-12-15T10:19:35.446Z,101195.84
2022-12-15T10:22:04.304Z,101192.34
2022-12-15T10:25:08.557Z,101197.34
2022-12-15T10:27:55.042Z,101203.25
2022-12-15T10:30:23.851Z,101199.69
2022-12-15T10:33:02.697Z,101196.94
2022-12-15T10:35:33.907Z,101202.94
2022-12-15T10:38:05.551Z,101196.72
2022-12-15T10:40:50.459Z,101199.19
2022-12-15T10:43:29.115Z,101200.00
2022-12-15T10:46:12.179Z,101203.25
2022-12-15T10:48:42.832Z,101194.56
2022-12-15T10:51:20.627Z,101202.09
2022-12-15T10:53:54.637Z,101194.09
2022-12-15T10:56:32.738Z,101189.50
2022-12-15T10:59:05.074Z,101191.00
2022-12-15T11:01:35.984Z,101185.56
2022-12-15T11:04:08.250Z,101182.09
2022-12-15T11:06:39.424Z,101185.38
2022-12-15T11:09:30.054Z,101185.06
2022-12-15T11:12:15.936Z,101189.28
2022-12-15T11:14:47.672Z,101191.66
2022-12-15T11:17:19.368Z,101188.75
2022-12-15T11:20:01.902Z,101187.66
2022-12-15T11:22:41.299Z,101182.34
2022-12-15T11:25:21.896Z,101177.84
2022-12-15T11:27:53.414Z,101168.94
2022-12-15T11:30:26.309Z,101165.25
2022-12-15T11:32:59.492Z,101153.94
2022-12-15T11:35:42.627Z,101167.66
2022-12-15T11:38:21.224Z,101168.13
2022-12-15T11:40:51.975Z,101173.72
2022-12-15T11:43:45.649Z,101160.59
2022-12-15T11:46:24.254Z,101163.03
2022-12-15T11:49:16.730Z,101162.75
2022-12-15T11:51:54.564Z,101161.72
2022-12-15T11:54:31.302Z,101165.78
2022-12-15T11:57:11.078Z,101157.94
2022-12-15T11:59:58.501Z,101160.53
2022-12-15T12:03:00.438Z,101161.06
2022-12-15T12:05:39.392Z,101157.56
2022-12-15T12:08:24.131Z,101151.22
2022-12-15T12:11:01.674Z,101147.50
2022-12-15T12:13:37.202Z,101145.59
2022-12-15T12:16:21.110Z,101141.72
2022-12-15T12:18:58.184Z,101134.50
2022-12-15T12:21:31.361Z,101134.97
2022-12-15T12:24:05.782Z,101135.75
2022-12-15T12:26:40.595Z,101137.53
2022-12-15T12:29:16.940Z,101123.75
2022-12-15T12:32:02.187Z,101128.81
2022-12-15T12:35:31.212Z,101130.63
2022-12-15T12:37:47.071Z,101130.72
2022-12-15T12:40:23.777Z,101129.81
2022-12-15T12:42:56.232Z,101127.06
2022-12-15T12:45:29.121Z,101123.44
2022-12-15T12:48:02.942Z,101129.38
2022-12-15T12:50:32.915Z,101120.75
2022-12-15T12:53:04.716Z,101125.56
2022-12-15T12:55:42.229Z,101126.19
2022-12-15T12:58:33.057Z,101130.06
2022-12-15T13:01:31.427Z,101125.47
2022-12-15T13:04:12.298Z,101130.44
2022-12-15T13:07:01.789Z,101134.03
2022-12-15T13:09:41.220Z,101131.13
2022-12-15T13:12:52.023Z,101138.53
2022-12-15T13:15:36.604Z,101141.72
2022-12-15T13:18:14.105Z,101137.69
2022-12-15T13:20:44.087Z,101133.16
2022-12-15T13:23:42.024Z,101132.22
2022-12-15T13:26:16.496Z,101139.88
2022-12-15T13:28:53.627Z,101129.97
2022-12-15T13:31:32.045Z,101138.63
2022-12-15T13:34:14.898Z,101144.50
2022-12-15T13:36:55.389Z,101144.69
2022-12-15T13:39:59.147Z,101144.34
2022-12-15T13:42:38.833Z,101132.22
2022-12-15T13:45:36.904Z,101130.47
2022-12-15T13:48:20.057Z,101136.50
2022-12-15T13:50:58.014Z,101134.84
2022-12-15T13:53:29.560Z,101144.38
2022-12-15T13:56:07.995Z,101141.88
2022-12-15T13:58:43.593Z,101142.81
2022-12-15T14:01:31.992Z,101141.31
2022-12-15T14:04:07.523Z,101148.38
2022-12-15T14:06:42.055Z,101148.44
2022-12-15T14:09:19.706Z,101137.09
2022-12-15T14:11:53.667Z,101142.22
2022-12-15T14:14:28.043Z,101138.53
2022-12-15T14:17:03.821Z,101131.56
2022-12-15T14:19:42.617Z,101129.53
2022-12-15T14:22:28.583Z,101134.47
2022-12-15T14:25:04.139Z,101124.78
2022-12-15T14:27:34.710Z,101123.75
2022-12-15T14:30:19.811Z,101131.88
2022-12-15T14:32:53.560Z,101130.34
2022-12-15T14:35:31.581Z,101126.31
2022-12-15T14:38:08.208Z,101115.03
2022-12-15T14:40:40.398Z,101117.50
2022-12-15T14:43:14.602Z,101112.69
2022-12-15T14:45:43.333Z,101110.38
2022-12-15T14:48:42.591Z,101105.31
2022-12-15T14:51:14.755Z,101111.69
2022-12-15T14:53:45.980Z,101114.88
2022-12-15T14:56:30.101Z,101118.75
2022-12-15T14:59:04.503Z,101119.03
2022-12-15T15:01:40.453Z,101123.56
2022-12-15T15:04:26.963Z,101130.59
2022-12-15T15:06:57.536Z,101129.84
2022-12-15T15:09:28.173Z,101127.31
2022-12-15T15:12:01.783Z,101129.16
2022-12-15T15:14:34.484Z,101125.03
2022-12-15T15:17:12.340Z,101132.13
2022-12-15T15:19:49.965Z,101140.09
2022-12-15T15:22:32.765Z,101140.13
2022-12-15T15:25:02.996Z,101143.69
2022-12-15T15:27:41.256Z,101145.53
2022-12-15T15:30:24.064Z,101150.13
2022-12-15T15:32:55.766Z,101154.00
2022-12-15T15:35:32.626Z,101159.56
2022-12-15T15:38:06.297Z,101166.59
2022-12-15T15:40:38.534Z,101164.84
2022-12-15T15:43:12.832Z,101169.97
2022-12-15T15:45:45.094Z,101166.53
2022-12-15T15:48:20.663Z,101179.69
2022-12-15T15:50:50.650Z,101184.38
2022-12-15T15:53:22.828Z,101184.72
2022-12-15T15:55:54.492Z,101192.72
2022-12-15T15:58:23.435Z,101191.09
2022-12-15T16:00:53.996Z,101200.78
2022-12-15T16:03:22.967Z,101199.16
2022-12-15T16:05:53.411Z,101203.63
2022-12-15T16:08:28.479Z,101203.84
2022-12-15T16:10:57.478Z,101198.88
2022-12-15T16:13:26.601Z,101201.66
2022-12-15T16:15:56.261Z,101195.69
2022-12-15T16:18:25.049Z,101200.22
2022-12-15T16:20:55.411Z,101196.88
2022-12-15T16:23:28.027Z,101204.81
2022-12-15T16:25:58.888Z,101202.28
2022-12-15T16:28:29.751Z,101209.28
2022-12-15T16:30:59.966Z,101211.03
2022-12-15T16:33:29.009Z,101210.13
2022-12-15T16:35:59.793Z,101220.53
2022-12-15T16:38:31.614Z,101222.31
2022-12-15T16:44:22.397Z,101220.00
2022-12-15T16:46:51.588Z,101220.13
2022-12-15T16:49:20.773Z,101228.09
2022-12-15T16:51:54.262Z,101221.38
2022-12-15T16:54:25.676Z,101220.75
2022-12-15T16:56:55.190Z,101233.81
2022-12-15T16:59:35.696Z,101230.44
2022-12-15T17:02:28.367Z,101234.81
2022-12-15T17:04:57.807Z,101234.81
2022-12-15T17:07:29.829Z,101234.94
2022-12-15T17:09:58.568Z,101246.94
2022-12-15T17:12:27.333Z,101243.31
2022-12-15T17:14:57.755Z,101243.16
2022-12-15T17:17:28.539Z,101250.00
2022-12-15T17:22:49.292Z,101249.97
2022-12-15T17:25:37.535Z,101255.13
2022-12-15T17:28:16.883Z,101256.13
2022-12-15T17:30:45.889Z,101262.13
2022-12-15T17:33:23.572Z,101275.03
2022-12-15T17:35:54.445Z,101272.44
2022-12-15T17:38:25.891Z,101268.16
2022-12-15T17:40:55.249Z,101271.63
2022-12-15T17:43:32.083Z,101272.56
2022-12-15T17:46:05.290Z,101276.97
2022-12-15T17:48:34.688Z,101282.19
2022-12-15T17:51:04.063Z,101274.53
2022-12-15T17:53:34.545Z,101278.81
2022-12-15T17:56:03.806Z,101270.28
2022-12-15T17:58:32.452Z,101275.47
2022-12-15T18:01:02.242Z,101276.34
2022-12-15T18:03:31.742Z,101279.81
2022-12-15T18:06:02.245Z,101284.16
2022-12-15T18:08:36.875Z,101282.34
2022-12-15T18:11:08.093Z,101287.41
2022-12-15T18:13:37.177Z,101292.53
2022-12-15T18:16:12.192Z,101290.84
2022-12-15T18:18:42.182Z,101283.03
2022-12-15T18:21:15.898Z,101283.91
2022-12-15T18:23:47.898Z,101286.59
2022-12-15T18:26:17.476Z,101291.78
2022-12-15T18:28:46.192Z,101293.44
2022-12-15T18:31:21.471Z,101296.97
2022-12-15T18:33:50.901Z,101293.53
2022-12-15T18:36:21.861Z,101296.22
2022-12-15T18:38:53.222Z,101303.19
2022-12-15T18:41:25.395Z,101307.63
2022-12-15T18:43:56.613Z,101300.78
2022-12-15T18:46:25.669Z,101306.03
2022-12-15T18:48:56.450Z,101306.81
2022-12-15T18:51:25.022Z,101308.56
2022-12-15T18:53:55.972Z,101312.91
2022-12-15T18:56:25.661Z,101308.66
2022-12-15T18:58:55.244Z,101319.94
2022-12-15T19:01:23.960Z,101316.59
2022-12-15T19:03:54.975Z,101314.03
2022-12-15T19:06:35.234Z,101318.44
2022-12-15T19:09:09.280Z,101315.88
2022-12-15T19:11:38.099Z,101321.13
2022-12-15T19:14:36.124Z,101325.47
2022-12-15T19:17:24.720Z,101324.63
2022-12-15T19:20:11.078Z,101320.31
2022-12-15T19:22:41.017Z,101333.28
2022-12-15T19:25:23.333Z,101329.03
2022-12-15T19:27:59.247Z,101331.59
2022-12-15T19:30:30.119Z,101323.75
2022-12-15T19:32:58.887Z,101327.31
2022-12-15T19:35:29.540Z,101336.88
2022-12-15T19:38:00.811Z,101333.44
2022-12-15T19:40:32.845Z,101337.75
2022-12-15T19:43:01.970Z,101343.03
2022-12-15T19:45:32.334Z,101344.78
2022-12-15T19:48:01.650Z,101347.38
2022-12-15T19:50:41.788Z,101342.16
2022-12-15T19:53:17.627Z,101343.00
2022-12-15T19:55:48.895Z,101343.03
2022-12-15T19:58:28.640Z,101343.09
2022-12-15T20:01:00.084Z,101337.06
2022-12-15T20:03:30.492Z,101331.03
2022-12-15T20:06:00.892Z,101344.00
2022-12-15T20:08:34.992Z,101350.06
2022-12-15T20:11:11.120Z,101352.66
2022-12-15T20:13:39.819Z,101351.84
2022-12-15T20:16:09.588Z,101350.16
2022-12-15T20:18:38.290Z,101354.53
2022-12-15T20:21:07.978Z,101351.97
2022-12-15T20:23:49.959Z,101353.75
2022-12-15T20:26:21.687Z,101349.47
2022-12-15T20:28:50.508Z,101347.81
2022-12-15T20:31:23.949Z,101358.19
2022-12-15T20:33:53.980Z,101364.19
2022-12-15T20:36:25.714Z,101365.03
2022-12-15T20:38:55.532Z,101365.97
2022-12-15T20:41:27.799Z,101362.53
2022-12-15T20:43:58.076Z,101354.75
2022-12-15T20:46:28.917Z,101358.22
2022-12-15T20:48:58.007Z,101356.53
2022-12-15T20:51:30.618Z,101365.16
2022-12-15T20:54:02.511Z,101366.03
2022-12-15T20:56:32.954Z,101363.50
2022-12-15T20:59:01.261Z,101367.84
2022-12-15T21:01:32.726Z,101365.28
2022-12-15T21:04:03.742Z,101368.78
2022-12-15T21:06:34.442Z,101373.97
2022-12-15T21:09:05.066Z,101366.19
2022-12-15T21:11:35.092Z,101373.97
2022-12-15T21:14:05.189Z,101368.72
2022-12-15T21:16:34.860Z,101383.47
2022-12-15T21:19:20.181Z,101386.94
2022-12-15T21:21:54.924Z,101397.28
2022-12-15T21:24:26.343Z,101386.94
2022-12-15T21:26:56.570Z,101392.19
2022-12-15T21:29:26.923Z,101396.53
2022-12-15T21:31:55.927Z,101394.84
2022-12-15T21:34:25.342Z,101385.34
2022-12-15T21:36:55.849Z,101389.72
2022-12-15T21:39:29.787Z,101387.19
2022-12-15T21:42:03.575Z,101393.28
2022-12-15T21:44:32.103Z,101391.69
2022-12-15T21:47:00.779Z,101386.56
2022-12-15T21:49:29.322Z,101383.16
2022-12-15T21:51:59.827Z,101385.00
2022-12-15T21:54:32.551Z,101389.38
2022-12-15T21:57:04.103Z,101394.56
2022-12-15T21:59:42.313Z,101386.84
2022-12-15T22:02:25.598Z,101385.13
2022-12-15T22:07:43.062Z,101372.16
2022-12-15T22:10:12.222Z,101373.00
2022-12-15T22:12:45.731Z,101370.41
2022-12-15T22:15:16.645Z,101373.00
2022-12-15T22:17:45.642Z,101378.09
2022-12-15T22:20:19.931Z,101380.69
2022-12-15T22:22:49.302Z,101371.19
2022-12-15T22:25:20.756Z,101372.94
2022-12-15T22:27:51.741Z,101371.19
2022-12-15T22:30:22.793Z,101372.94
2022-12-15T22:32:51.583Z,101370.38
2022-12-15T22:35:25.050Z,101368.66
2022-12-15T22:37:56.250Z,101369.59
2022-12-15T22:40:25.636Z,101376.56
2022-12-15T22:42:59.674Z,101384.34
2022-12-15T22:45:28.393Z,101389.47
2022-12-15T22:47:56.769Z,101389.53
2022-12-15T22:50:27.437Z,101392.09
2022-12-15T22:52:56.158Z,101394.72
2022-12-15T22:55:25.523Z,101396.44
2022-12-15T22:58:00.961Z,101403.38
2022-12-15T23:00:29.709Z,101399.03
2022-12-15T23:03:00.531Z,101398.19
2022-12-15T23:05:29.409Z,101401.63
2022-12-15T23:08:00.512Z,101403.38
2022-12-15T23:10:46.243Z,101402.53
2022-12-15T23:13:16.294Z,101407.72
2022-12-15T23:16:01.439Z,101404.31
2022-12-15T23:18:30.015Z,101411.28
2022-12-15T23:20:58.673Z,101412.91
2022-12-15T23:23:28.526Z,101418.97
2022-12-15T23:25:56.857Z,101415.56
2022-12-15T23:28:27.757Z,101412.19
2022-12-15T23:30:58.598Z,101412.19
2022-12-15T23:33:29.707Z,101406.94
2022-12-15T23:36:00.622Z,101404.34
2022-12-15T23:38:30.032Z,101403.56
2022-12-15T23:40:58.661Z,101410.50
2022-12-15T23:43:32.249Z,101408.81
2022-12-15T23:46:03.510Z,101417.50
2022-12-15T23:48:35.073Z,101416.66
2022-12-15T23:51:08.699Z,101416.69
2022-12-15T23:53:41.193Z,101418.41
2022-12-15T23:56:12.369Z,101419.19
2022-12-15T23:58:43.850Z,101417.44
